Terminal Aerodrome Forecast
Issued by NWS

Home | Current Version | Previous Version | Text Only | Print | Product List | Glossary On
Versions: 1 2 3 4 5 6 7 8 9 10 11 12 13 14 15 16 17 18 19 20 21
332
FTUS45 KRIW 170538
TAFRKS
TAF
KRKS 170538Z 1706/1806 24006KT 5SM BR SCT005
     FM171100 24005KT 3/4SM BR VV003
     FM171900 25006KT 2SM BR BKN005
     FM172100 24010KT P6SM VCFG FEW005=

USA.gov is the U.S. government's official web portal to all federal, state and local government web resources and services.